createdAt,value
2019-03-28T00:00:36.996Z,93.50
2019-03-28T00:03:09.792Z,85.53
2019-03-28T00:05:42.491Z,82.55
2019-03-28T00:08:14.977Z,82.05
2019-03-28T00:10:47.421Z,81.70
2019-03-28T00:13:20.026Z,83.42
2019-03-28T00:15:52.506Z,91.28
2019-03-28T00:18:24.879Z,86.28
2019-03-28T00:20:57.663Z,87.67
2019-03-28T00:23:32.136Z,87.47
2019-03-28T00:26:05.021Z,88.82
2019-03-28T00:28:37.819Z,79.92
2019-03-28T00:31:10.394Z,75.15
2019-03-28T00:33:43.342Z,74.72
2019-03-28T00:36:16.037Z,72.95
2019-03-28T00:38:48.424Z,73.90
2019-03-28T00:41:21.253Z,68.00
2019-03-28T00:43:53.313Z,63.40
2019-03-28T00:46:26.310Z,62.27
2019-03-28T00:48:58.609Z,60.60
2019-03-28T00:51:31.982Z,62.00
2019-03-28T00:54:04.804Z,60.25
2019-03-28T00:56:45.225Z,54.67
2019-03-28T00:59:11.243Z,56.23
2019-03-28T01:01:43.889Z,56.80
2019-03-28T01:04:16.622Z,60.80
2019-03-28T01:06:49.040Z,55.80
2019-03-28T01:09:21.921Z,56.08
2019-03-28T01:11:54.346Z,56.15
2019-03-28T01:14:26.648Z,53.65
2019-03-28T01:16:59.113Z,55.65
2019-03-28T01:19:32.506Z,57.88
2019-03-28T01:22:05.306Z,53.10
2019-03-28T01:24:38.426Z,54.95
2019-03-28T01:27:12.229Z,52.73
2019-03-28T01:29:44.876Z,51.33
2019-03-28T01:32:17.138Z,54.63
2019-03-28T01:34:49.739Z,51.33
2019-03-28T01:37:22.161Z,48.55
2019-03-28T01:39:54.402Z,51.50
2019-03-28T01:42:26.714Z,47.98
2019-03-28T01:44:59.578Z,48.68
2019-03-28T01:47:31.882Z,49.27
2019-03-28T01:50:07.462Z,43.75
2019-03-28T01:52:39.800Z,50.58
2019-03-28T01:55:12.791Z,43.87
2019-03-28T01:57:45.243Z,38.35
2019-03-28T02:00:21.177Z,38.10
2019-03-28T02:02:53.506Z,35.75
2019-03-28T02:05:26.193Z,39.48
2019-03-28T02:07:58.594Z,40.10
2019-03-28T02:10:31.016Z,36.63
2019-03-28T02:13:03.644Z,34.53
2019-03-28T02:15:36.509Z,38.00
2019-03-28T02:18:09.298Z,36.63
2019-03-28T02:20:42.283Z,36.35
2019-03-28T02:23:14.582Z,33.30
2019-03-28T02:25:47.455Z,33.67
2019-03-28T02:28:19.843Z,31.80
2019-03-28T02:30:52.349Z,33.85
2019-03-28T02:33:25.483Z,29.72
2019-03-28T02:35:58.125Z,28.95
2019-03-28T02:38:30.731Z,30.82
2019-03-28T02:41:03.056Z,32.28
2019-03-28T02:43:35.881Z,30.50
2019-03-28T02:46:08.332Z,27.32
2019-03-28T02:48:40.894Z,27.52
2019-03-28T02:51:13.834Z,29.98
2019-03-28T02:53:46.379Z,28.60
2019-03-28T02:56:19.224Z,29.55
2019-03-28T02:58:51.602Z,30.82
2019-03-28T03:01:24.121Z,30.25
2019-03-28T03:03:57.150Z,30.75
2019-03-28T03:06:29.498Z,31.45
2019-03-28T03:09:02.246Z,29.40
2019-03-28T03:11:35.758Z,28.45
2019-03-28T03:14:08.622Z,29.92
2019-03-28T03:16:41.747Z,31.77
2019-03-28T03:19:14.284Z,32.75
2019-03-28T03:21:46.906Z,31.15
2019-03-28T03:24:19.509Z,29.95
2019-03-28T03:26:51.949Z,30.92
2019-03-28T03:29:24.577Z,29.07
2019-03-28T03:31:57.417Z,29.57
2019-03-28T03:34:32.780Z,27.90
2019-03-28T03:37:05.326Z,29.18
2019-03-28T03:39:37.923Z,26.70
2019-03-28T03:42:10.664Z,31.07
2019-03-28T03:44:43.337Z,28.60
2019-03-28T03:47:15.802Z,32.88
2019-03-28T03:49:47.938Z,28.38
2019-03-28T03:52:20.387Z,29.57
2019-03-28T03:54:52.593Z,30.40
2019-03-28T03:57:24.993Z,27.13
2019-03-28T03:59:57.433Z,27.93
2019-03-28T04:02:30.959Z,27.32
2019-03-28T04:05:03.499Z,30.17
2019-03-28T04:07:35.901Z,29.12
2019-03-28T04:10:09.152Z,31.02
2019-03-28T04:12:41.570Z,27.73
2019-03-28T04:15:14.305Z,27.50
2019-03-28T04:17:47.720Z,27.05
2019-03-28T04:20:20.654Z,27.75
2019-03-28T04:22:53.019Z,25.75
2019-03-28T04:25:26.443Z,26.23
2019-03-28T04:27:59.085Z,26.97
2019-03-28T04:30:31.727Z,26.10
2019-03-28T04:33:03.957Z,26.23
2019-03-28T04:35:36.332Z,25.97
2019-03-28T04:38:08.963Z,26.42
2019-03-28T04:40:41.430Z,27.05
2019-03-28T04:43:13.968Z,29.12
2019-03-28T04:45:46.360Z,29.85
2019-03-28T04:48:18.755Z,24.43
2019-03-28T04:50:51.438Z,27.42
2019-03-28T04:53:24.899Z,25.35
2019-03-28T04:55:57.417Z,27.87
2019-03-28T04:58:43.439Z,27.52
2019-03-28T05:01:04.767Z,27.70
2019-03-28T05:03:37.357Z,27.20
2019-03-28T05:06:10.380Z,27.65
2019-03-28T05:08:42.851Z,27.07
2019-03-28T05:11:15.770Z,27.13
2019-03-28T05:13:48.977Z,27.52
2019-03-28T05:16:21.359Z,26.73
2019-03-28T05:18:54.298Z,29.92
2019-03-28T05:21:26.850Z,28.17
2019-03-28T05:23:59.865Z,29.75
2019-03-28T05:26:32.484Z,28.47
2019-03-28T05:29:04.990Z,27.60
2019-03-28T05:31:37.699Z,27.90
2019-03-28T05:34:10.106Z,28.17
2019-03-28T05:36:42.917Z,28.40
2019-03-28T05:39:15.182Z,28.10
2019-03-28T05:41:48.256Z,27.37
2019-03-28T05:44:20.732Z,27.20
2019-03-28T05:46:53.352Z,26.42
2019-03-28T05:49:25.517Z,27.90
2019-03-28T05:51:57.943Z,29.80
2019-03-28T05:54:30.243Z,26.55
2019-03-28T05:57:03.033Z,27.07
2019-03-28T05:59:35.417Z,25.90
2019-03-28T06:02:08.094Z,26.60
2019-03-28T06:04:40.879Z,26.70
2019-03-28T06:07:13.404Z,25.60
2019-03-28T06:09:45.842Z,26.95
2019-03-28T06:12:19.255Z,25.75
2019-03-28T06:14:51.526Z,26.55
2019-03-28T06:17:24.172Z,26.68
2019-03-28T06:19:56.499Z,26.12
2019-03-28T06:22:29.325Z,26.12
2019-03-28T06:25:05.580Z,25.15
2019-03-28T06:27:35.831Z,25.15
2019-03-28T06:30:10.522Z,26.50
2019-03-28T06:32:43.638Z,26.15
2019-03-28T06:35:16.118Z,24.63
2019-03-28T06:37:51.303Z,27.15
2019-03-28T06:40:22.612Z,24.75
2019-03-28T06:42:54.721Z,24.37
2019-03-28T06:45:27.336Z,26.80
2019-03-28T06:47:59.733Z,26.93
2019-03-28T06:50:32.219Z,25.55
2019-03-28T06:53:04.606Z,26.35
2019-03-28T06:55:37.145Z,27.32
2019-03-28T06:58:09.683Z,27.60
2019-03-28T07:00:42.394Z,30.27
2019-03-28T07:03:15.977Z,27.45
2019-03-28T07:05:48.480Z,28.35
2019-03-28T07:08:21.206Z,27.25
2019-03-28T07:10:53.504Z,26.45
2019-03-28T07:13:26.133Z,28.95
2019-03-28T07:15:58.356Z,33.08
2019-03-28T07:18:30.769Z,28.47
2019-03-28T07:21:03.064Z,28.40
2019-03-28T07:23:35.694Z,29.48
2019-03-28T07:26:08.203Z,27.45
2019-03-28T07:28:40.788Z,27.95
2019-03-28T07:31:13.641Z,27.13
2019-03-28T07:33:46.273Z,26.62
2019-03-28T07:36:19.094Z,25.97
2019-03-28T07:38:51.690Z,26.68
2019-03-28T07:41:24.720Z,27.10
2019-03-28T07:43:57.486Z,26.70
2019-03-28T07:46:30.340Z,27.42
2019-03-28T07:49:02.904Z,28.57
2019-03-28T07:51:35.320Z,27.20
2019-03-28T07:54:07.732Z,26.65
2019-03-28T07:56:40.434Z,27.30
2019-03-28T07:59:12.828Z,27.25
2019-03-28T08:01:45.135Z,26.30
2019-03-28T08:04:17.518Z,26.57
2019-03-28T08:06:50.545Z,28.75
2019-03-28T08:09:35.735Z,29.45
2019-03-28T08:11:58.669Z,27.13
2019-03-28T08:14:31.329Z,26.87
2019-03-28T08:17:03.719Z,28.95
2019-03-28T08:19:36.450Z,28.25
2019-03-28T08:22:09.966Z,27.40
2019-03-28T08:24:42.593Z,27.25
2019-03-28T08:27:15.235Z,27.95
2019-03-28T08:29:47.657Z,28.90
2019-03-28T08:32:21.719Z,28.60
2019-03-28T08:34:54.645Z,26.73
2019-03-28T08:37:28.387Z,30.68
2019-03-28T08:40:02.644Z,29.77
2019-03-28T08:42:35.272Z,27.48
2019-03-28T08:45:09.755Z,27.80
2019-03-28T08:47:42.082Z,24.32
2019-03-28T08:50:14.839Z,23.83
2019-03-28T08:52:47.249Z,22.85
2019-03-28T08:55:19.978Z,25.17
2019-03-28T08:57:52.519Z,22.32
2019-03-28T09:00:33.091Z,21.30
2019-03-28T09:02:58.864Z,18.95
2019-03-28T09:05:31.406Z,15.78
2019-03-28T09:08:03.838Z,17.60
2019-03-28T09:10:36.149Z,14.73
2019-03-28T09:13:08.842Z,16.07
2019-03-28T09:15:43.897Z,17.55
2019-03-28T09:18:15.314Z,14.07
2019-03-28T09:20:48.469Z,22.32
2019-03-28T09:23:21.232Z,23.65
2019-03-28T09:25:53.786Z,19.87
2019-03-28T09:28:26.575Z,18.92
2019-03-28T09:30:59.327Z,18.05
2019-03-28T09:33:32.481Z,17.32
2019-03-28T09:36:05.455Z,16.52
2019-03-28T09:38:38.099Z,12.95
2019-03-28T09:41:10.784Z,16.00
2019-03-28T09:43:54.606Z,18.62
2019-03-28T09:46:17.172Z,15.95
2019-03-28T09:48:49.613Z,17.12
2019-03-28T09:51:22.378Z,22.37
2019-03-28T09:53:55.075Z,28.45
2019-03-28T09:56:27.493Z,21.73
2019-03-28T09:59:00.467Z,17.75
2019-03-28T10:01:33.425Z,20.43
2019-03-28T10:04:06.564Z,17.02
2019-03-28T10:06:40.626Z,17.37
2019-03-28T10:09:13.066Z,14.87
2019-03-28T10:11:45.567Z,16.67
2019-03-28T10:14:17.964Z,14.98
2019-03-28T10:16:50.179Z,17.42
2019-03-28T10:19:22.498Z,20.55
2019-03-28T10:21:55.183Z,22.67
2019-03-28T10:24:27.488Z,20.35
2019-03-28T10:27:00.231Z,18.67
2019-03-28T10:29:32.549Z,18.80
2019-03-28T10:32:05.057Z,21.05
2019-03-28T10:34:37.758Z,17.77
2019-03-28T10:37:10.349Z,20.77
2019-03-28T10:39:43.299Z,31.93
2019-03-28T10:42:15.829Z,32.90
2019-03-28T10:44:48.471Z,29.92
2019-03-28T10:47:20.871Z,21.70
2019-03-28T10:49:53.172Z,20.35
2019-03-28T10:52:25.911Z,24.12
2019-03-28T10:54:58.457Z,24.12
2019-03-28T10:57:32.131Z,25.50
2019-03-28T11:00:06.155Z,25.97
2019-03-28T11:02:39.718Z,22.70
2019-03-28T11:05:12.326Z,25.65
2019-03-28T11:07:44.830Z,21.97
2019-03-28T11:10:17.461Z,19.75
2019-03-28T11:12:49.572Z,20.17
2019-03-28T11:15:22.290Z,26.97
2019-03-28T11:17:54.646Z,20.72
2019-03-28T11:20:27.037Z,18.95
2019-03-28T11:23:02.209Z,19.25
2019-03-28T11:25:33.335Z,23.15
2019-03-28T11:28:05.673Z,18.40
2019-03-28T11:30:38.273Z,18.82
2019-03-28T11:33:10.827Z,20.95
2019-03-28T11:35:44.272Z,20.35
2019-03-28T11:38:17.154Z,22.00
2019-03-28T11:40:49.922Z,20.20
2019-03-28T11:43:22.295Z,23.25
2019-03-28T11:45:54.713Z,20.30
2019-03-28T11:48:27.118Z,22.55
2019-03-28T11:50:59.611Z,27.58
2019-03-28T11:53:31.905Z,23.77
2019-03-28T11:56:04.654Z,28.27
2019-03-28T11:58:37.138Z,26.37
2019-03-28T12:01:09.794Z,26.07
2019-03-28T12:03:42.111Z,26.30
2019-03-28T12:06:14.731Z,28.25
2019-03-28T12:08:46.959Z,33.28
2019-03-28T12:11:19.614Z,30.90
2019-03-28T12:13:52.734Z,32.15
2019-03-28T12:16:25.217Z,29.60
2019-03-28T12:18:57.528Z,30.17
2019-03-28T12:21:30.039Z,33.15
2019-03-28T12:24:02.335Z,30.48
2019-03-28T12:26:34.983Z,25.40
2019-03-28T12:29:07.488Z,24.77
2019-03-28T12:31:40.126Z,26.70
2019-03-28T12:34:12.431Z,24.77
2019-03-28T12:36:45.096Z,25.35
2019-03-28T12:39:17.509Z,25.62
2019-03-28T12:41:49.805Z,22.85
2019-03-28T12:44:22.168Z,25.60
2019-03-28T12:46:54.569Z,25.97
2019-03-28T12:49:27.069Z,29.80
2019-03-28T12:51:59.694Z,25.25
2019-03-28T12:54:32.121Z,26.23
2019-03-28T12:57:04.979Z,25.48
2019-03-28T12:59:37.614Z,21.82
2019-03-28T13:02:09.925Z,25.77
2019-03-28T13:04:42.346Z,26.90
2019-03-28T13:07:14.729Z,21.85
2019-03-28T13:09:47.001Z,21.10
2019-03-28T13:12:19.585Z,22.87
2019-03-28T13:14:51.902Z,23.90
2019-03-28T13:17:24.323Z,23.00
2019-03-28T13:19:56.537Z,24.85
2019-03-28T13:22:28.940Z,23.90
2019-03-28T13:25:01.237Z,25.08
2019-03-28T13:27:34.713Z,24.63
2019-03-28T13:30:09.881Z,27.65
2019-03-28T13:32:42.611Z,28.57
2019-03-28T13:35:15.056Z,25.85
2019-03-28T13:37:47.367Z,30.00
2019-03-28T13:40:20.066Z,29.32
2019-03-28T13:42:53.111Z,27.15
2019-03-28T13:45:25.685Z,27.95
2019-03-28T13:47:58.012Z,31.33
2019-03-28T13:50:30.428Z,31.70
2019-03-28T13:53:03.029Z,32.25
2019-03-28T13:55:36.091Z,31.15
2019-03-28T13:58:08.514Z,30.37
2019-03-28T14:00:40.819Z,33.08
2019-03-28T14:03:13.365Z,33.88
2019-03-28T14:05:45.696Z,34.00
2019-03-28T14:08:18.099Z,39.27
2019-03-28T14:10:50.595Z,36.25
2019-03-28T14:13:23.240Z,33.78
2019-03-28T14:15:55.906Z,34.43
2019-03-28T14:18:28.252Z,38.08
2019-03-28T14:21:00.903Z,36.90
2019-03-28T14:23:33.212Z,38.17
2019-03-28T14:26:05.635Z,34.27
2019-03-28T14:28:38.170Z,36.90
2019-03-28T14:31:10.531Z,35.23
2019-03-28T14:33:43.546Z,37.60
2019-03-28T14:36:16.323Z,40.35
2019-03-28T14:38:48.540Z,38.08
2019-03-28T14:41:21.201Z,40.48
2019-03-28T14:43:53.938Z,37.53
2019-03-28T14:46:26.257Z,36.05
2019-03-28T14:48:58.572Z,39.10
2019-03-28T14:51:31.504Z,42.35
2019-03-28T14:54:03.660Z,42.33
2019-03-28T14:56:38.504Z,35.78
2019-03-28T14:59:12.308Z,37.88
2019-03-28T15:01:45.052Z,46.85
2019-03-28T15:04:17.350Z,40.95
2019-03-28T15:06:49.998Z,40.52
2019-03-28T15:09:22.373Z,40.48
2019-03-28T15:11:54.925Z,38.95
2019-03-28T15:14:27.507Z,43.90
2019-03-28T15:17:00.126Z,45.52
2019-03-28T15:19:32.436Z,42.33
2019-03-28T15:22:05.044Z,37.80
2019-03-28T15:24:37.365Z,42.83
2019-03-28T15:27:10.550Z,45.65
2019-03-28T15:29:43.167Z,43.98
2019-03-28T15:32:15.615Z,45.20
2019-03-28T15:34:48.339Z,46.73
2019-03-28T15:37:21.282Z,46.20
2019-03-28T15:39:53.809Z,44.45
2019-03-28T15:42:27.986Z,56.05
2019-03-28T15:45:00.008Z,44.88
2019-03-28T15:47:32.285Z,54.15
2019-03-28T15:50:04.830Z,51.48
2019-03-28T15:52:37.124Z,47.03
2019-03-28T15:55:09.645Z,50.33
2019-03-28T15:57:42.447Z,53.25
2019-03-28T16:00:15.197Z,51.68
2019-03-28T16:02:47.847Z,48.80
2019-03-28T16:05:20.297Z,48.40
2019-03-28T16:07:52.807Z,52.13
2019-03-28T16:10:25.120Z,51.23
2019-03-28T16:12:57.359Z,51.25
2019-03-28T16:15:29.665Z,54.08
2019-03-28T16:18:02.252Z,52.98
2019-03-28T16:20:34.819Z,58.05
2019-03-28T16:23:07.468Z,54.98
2019-03-28T16:25:39.958Z,53.25
2019-03-28T16:28:12.413Z,51.20
2019-03-28T16:30:44.834Z,53.35
2019-03-28T16:33:17.558Z,58.20
2019-03-28T16:35:50.560Z,52.35
2019-03-28T16:38:23.070Z,51.95
2019-03-28T16:40:55.514Z,60.17
2019-03-28T16:43:27.834Z,56.28
2019-03-28T16:46:00.247Z,61.18
2019-03-28T16:48:33.142Z,65.03
2019-03-28T16:51:05.857Z,66.30
2019-03-28T16:53:38.145Z,57.85
2019-03-28T16:56:10.555Z,50.40
2019-03-28T16:58:43.195Z,56.08
2019-03-28T17:01:15.530Z,62.43
2019-03-28T17:03:48.080Z,59.85
2019-03-28T17:06:20.581Z,58.40
2019-03-28T17:08:54.270Z,55.85
2019-03-28T17:11:26.590Z,51.88
2019-03-28T17:13:59.821Z,58.42
2019-03-28T17:16:32.472Z,59.55
2019-03-28T17:19:04.822Z,67.85
2019-03-28T17:21:37.733Z,70.90
2019-03-28T17:24:10.268Z,63.98
2019-03-28T17:26:42.716Z,66.95
2019-03-28T17:29:15.474Z,65.80
2019-03-28T17:31:47.887Z,65.03
2019-03-28T17:34:33.710Z,61.40
2019-03-28T17:36:53.927Z,64.97
2019-03-28T17:39:27.399Z,67.45
2019-03-28T17:42:00.029Z,55.40
2019-03-28T17:44:34.004Z,57.00
2019-03-28T17:47:06.454Z,60.00
2019-03-28T17:49:38.772Z,54.65
2019-03-28T17:52:11.329Z,53.17
2019-03-28T17:54:43.873Z,51.00
2019-03-28T17:57:16.304Z,51.45
2019-03-28T17:59:48.416Z,45.73
2019-03-28T18:02:20.855Z,48.60
2019-03-28T18:04:52.951Z,43.90
2019-03-28T18:07:25.403Z,41.90
2019-03-28T18:09:57.908Z,44.30
2019-03-28T18:12:30.420Z,43.15
